Time;durP1;ratioP1;P1;durP2;ratioP2;P2;SDS_P1;SDS_P2;PMS_P1;PMS_P2;Temp;Humidity;BMP_temperature;BMP_pressure;BME280_temperature;BME280_humidity;BME280_pressure;Samples;Min_cycle;Max_cycle;Signal;HPM_P1;HPM_P2
2022/01/14 00:02:01;;;;;;;11.50;6.13;;;;;;;;;;4992972;28;20049;-73
2022/01/14 00:04:27;;;;;;;7.68;5.15;;;;;;;;;;4993223;28;20372;-73
2022/01/14 00:06:52;;;;;;;10.18;6.18;;;;;;;;;;4992570;28;20535;-76
2022/01/14 00:09:18;;;;;;;8.80;5.80;;;;;;;;;;4992867;28;20396;-73
2022/01/14 00:11:57;;;;;;;9.98;5.43;;;;;;;;;;4992997;28;20030;-75
2022/01/14 00:14:44;;;;;;;10.10;5.88;;;;;;;;;;4992747;28;20034;-76
2022/01/14 00:17:12;;;;;;;10.35;5.57;;;;;;;;;;4992309;28;20026;-75
2022/01/14 00:19:39;;;;;;;11.02;5.60;;;;;;;;;;4992532;28;20511;-75
2022/01/14 00:22:09;;;;;;;10.25;4.47;;;;;;;;;;4992384;28;20633;-75
2022/01/14 00:33:05;;;;;;;10.93;6.00;;;;;;;;;;4992778;28;20128;-75
2022/01/14 00:35:31;;;;;;;10.15;5.50;;;;;;;;;;4992371;28;20026;-75
2022/01/14 00:37:56;;;;;;;9.70;5.85;;;;;;;;;;4992027;28;20026;-75
2022/01/14 00:40:22;;;;;;;14.77;6.03;;;;;;;;;;4992111;28;20085;-75
2022/01/14 00:42:49;;;;;;;11.05;5.72;;;;;;;;;;4991971;28;20125;-75
2022/01/14 00:45:14;;;;;;;13.52;6.72;;;;;;;;;;4991787;28;20105;-75
2022/01/14 00:47:40;;;;;;;12.20;5.82;;;;;;;;;;4991820;28;20505;-75
2022/01/14 00:50:08;;;;;;;13.50;6.93;;;;;;;;;;4992014;28;20030;-75
2022/01/14 00:52:36;;;;;;;10.25;5.65;;;;;;;;;;4991833;28;20026;-75
2022/01/14 00:55:01;;;;;;;11.65;6.10;;;;;;;;;;4991687;28;20034;-75
2022/01/14 01:00:11;;;;;;;13.23;5.68;;;;;;;;;;4992104;28;20041;-75
2022/01/14 01:02:36;;;;;;;10.93;5.40;;;;;;;;;;4991715;28;20026;-75
2022/01/14 01:05:02;;;;;;;12.23;6.22;;;;;;;;;;4991533;28;20038;-75
2022/01/14 01:07:27;;;;;;;12.07;6.05;;;;;;;;;;4991640;28;20377;-75
2022/01/14 01:09:52;;;;;;;13.07;5.75;;;;;;;;;;4991606;28;20030;-75
2022/01/14 01:12:33;;;;;;;11.40;5.90;;;;;;;;;;4990451;28;20026;-75
2022/01/14 01:15:05;;;;;;;9.90;6.03;;;;;;;;;;4991432;28;20041;-75
2022/01/14 01:17:32;;;;;;;19.67;8.55;;;;;;;;;;4991864;28;20379;-75
2022/01/14 01:19:57;;;;;;;14.93;7.85;;;;;;;;;;4991642;28;20145;-75
2022/01/14 01:22:23;;;;;;;16.83;7.45;;;;;;;;;;4991219;28;20109;-75
2022/01/14 01:24:48;;;;;;;15.85;6.82;;;;;;;;;;4991192;28;20030;-75
2022/01/14 01:27:15;;;;;;;12.07;6.40;;;;;;;;;;4991281;28;20081;-75
2022/01/14 01:32:07;;;;;;;12.02;6.30;;;;;;;;;;4991466;28;20078;-75
2022/01/14 01:34:33;;;;;;;11.20;6.13;;;;;;;;;;4990766;28;20396;-75
2022/01/14 01:37:01;;;;;;;11.27;6.30;;;;;;;;;;4991354;28;20030;-75
2022/01/14 01:39:33;;;;;;;12.13;6.75;;;;;;;;;;4990781;28;20061;-75
2022/01/14 01:42:08;;;;;;;14.60;5.38;;;;;;;;;;4990959;28;20523;-75
2022/01/14 01:44:35;;;;;;;16.05;5.78;;;;;;;;;;4990706;28;20609;-75
2022/01/14 01:47:01;;;;;;;11.63;6.78;;;;;;;;;;4991041;28;20038;-75
2022/01/14 01:49:31;;;;;;;14.50;6.30;;;;;;;;;;4990751;28;20026;-75
2022/01/14 01:51:57;;;;;;;9.75;6.07;;;;;;;;;;4990890;28;20033;-75
2022/01/14 01:54:23;;;;;;;15.38;5.30;;;;;;;;;;4990904;28;20105;-75
2022/01/14 01:56:49;;;;;;;12.32;5.75;;;;;;;;;;4990782;28;20034;-75
2022/01/14 01:59:16;;;;;;;11.60;5.47;;;;;;;;;;4991286;28;20057;-75
2022/01/14 02:01:42;;;;;;;8.93;5.65;;;;;;;;;;4990941;28;20496;-75
2022/01/14 02:04:08;;;;;;;12.82;5.47;;;;;;;;;;4990797;28;20101;-74
2022/01/14 02:06:37;;;;;;;12.05;6.13;;;;;;;;;;4990468;28;20026;-75
2022/01/14 02:09:03;;;;;;;10.60;6.47;;;;;;;;;;4990571;28;20392;-75
2022/01/14 02:11:29;;;;;;;10.82;6.22;;;;;;;;;;4990801;28;20036;-75
2022/01/14 02:13:57;;;;;;;8.95;5.30;;;;;;;;;;4990366;28;20101;-75
2022/01/14 02:16:57;;;;;;;10.25;5.82;;;;;;;;;;4990248;28;20030;-75
2022/01/14 02:19:45;;;;;;;10.82;5.40;;;;;;;;;;4990093;28;20041;-75
2022/01/14 02:22:14;;;;;;;9.05;5.00;;;;;;;;;;4990339;28;20069;-75
2022/01/14 02:27:08;;;;;;;11.38;5.65;;;;;;;;;;4990291;28;20070;-75
2022/01/14 02:29:34;;;;;;;12.15;5.45;;;;;;;;;;4990353;28;20053;-75
2022/01/14 02:31:59;;;;;;;9.93;5.40;;;;;;;;;;4990356;28;20030;-75
2022/01/14 02:34:25;;;;;;;7.78;5.03;;;;;;;;;;4990220;28;20042;-75
2022/01/14 02:36:52;;;;;;;7.18;4.18;;;;;;;;;;4990020;28;20026;-75
2022/01/14 02:39:18;;;;;;;6.63;4.35;;;;;;;;;;4989961;28;20072;-75
2022/01/14 02:41:46;;;;;;;8.07;4.32;;;;;;;;;;4990044;28;20036;-75
2022/01/14 02:44:18;;;;;;;7.05;4.43;;;;;;;;;;4989839;28;20073;-75
2022/01/14 02:46:52;;;;;;;6.97;4.95;;;;;;;;;;4990023;28;20038;-75
2022/01/14 02:49:18;;;;;;;6.57;4.25;;;;;;;;;;4990535;28;20599;-75
2022/01/14 02:51:44;;;;;;;6.85;4.22;;;;;;;;;;4990250;28;20540;-75
2022/01/14 02:54:20;;;;;;;7.53;4.28;;;;;;;;;;4990096;28;20105;-75
2022/01/14 02:56:48;;;;;;;5.95;4.13;;;;;;;;;;4990050;28;20029;-75
2022/01/14 02:59:16;;;;;;;7.32;4.57;;;;;;;;;;4989780;28;20113;-75
2022/01/14 03:01:43;;;;;;;6.68;4.30;;;;;;;;;;4990330;28;20030;-74
2022/01/14 03:04:10;;;;;;;7.18;4.15;;;;;;;;;;4989817;28;20570;-75
2022/01/14 03:06:36;;;;;;;7.93;4.47;;;;;;;;;;4989668;28;20404;-75
2022/01/14 03:09:01;;;;;;;7.97;4.80;;;;;;;;;;4989585;28;20037;-75
2022/01/14 03:11:34;;;;;;;8.65;4.55;;;;;;;;;;4989946;28;20221;-75
2022/01/14 03:14:01;;;;;;;7.20;4.73;;;;;;;;;;4989873;28;20041;-75
2022/01/14 03:16:26;;;;;;;7.03;4.28;;;;;;;;;;4990025;28;20038;-75
2022/01/14 03:18:54;;;;;;;8.95;4.43;;;;;;;;;;4989579;28;20030;-75
2022/01/14 03:21:29;;;;;;;8.05;4.75;;;;;;;;;;4989841;28;20484;-75
2022/01/14 03:24:15;;;;;;;7.22;4.40;;;;;;;;;;4989644;28;20045;-75
2022/01/14 03:26:41;;;;;;;7.82;4.75;;;;;;;;;;4989549;28;20149;-75
2022/01/14 03:29:06;;;;;;;7.40;4.18;;;;;;;;;;4989609;28;20510;-75
2022/01/14 03:31:32;;;;;;;10.85;5.10;;;;;;;;;;4989813;28;20075;-75
2022/01/14 03:33:57;;;;;;;8.07;4.53;;;;;;;;;;4989499;28;20153;-75
2022/01/14 03:36:23;;;;;;;8.48;4.93;;;;;;;;;;4992393;28;20084;-75
2022/01/14 03:38:48;;;;;;;9.73;5.07;;;;;;;;;;4993337;28;20365;-75
2022/01/14 03:41:14;;;;;;;7.88;5.00;;;;;;;;;;4993155;28;20403;-75
2022/01/14 03:43:41;;;;;;;9.70;5.55;;;;;;;;;;4993351;28;20176;-75
2022/01/14 03:46:06;;;;;;;7.95;5.32;;;;;;;;;;4992935;28;20026;-75
2022/01/14 03:48:32;;;;;;;7.57;4.65;;;;;;;;;;4993166;28;20018;-75
2022/01/14 03:50:57;;;;;;;8.70;5.00;;;;;;;;;;4993258;28;20041;-75
2022/01/14 03:53:22;;;;;;;8.00;4.95;;;;;;;;;;4993191;28;20379;-75
2022/01/14 03:55:48;;;;;;;7.00;4.38;;;;;;;;;;4992710;28;20082;-75
2022/01/14 03:58:13;;;;;;;8.10;4.55;;;;;;;;;;4993092;28;20026;-75
2022/01/14 04:00:38;;;;;;;7.53;4.22;;;;;;;;;;4992751;28;20109;-75
2022/01/14 04:03:06;;;;;;;6.32;4.22;;;;;;;;;;4993347;28;20026;-75
2022/01/14 04:05:31;;;;;;;6.28;4.05;;;;;;;;;;4992425;28;20061;-75
2022/01/14 04:07:56;;;;;;;5.53;3.92;;;;;;;;;;4992953;28;20058;-75
2022/01/14 04:10:22;;;;;;;6.40;3.95;;;;;;;;;;4992666;28;20053;-75
2022/01/14 04:12:55;;;;;;;7.20;4.28;;;;;;;;;;4993097;28;20554;-75
2022/01/14 04:15:41;;;;;;;7.20;4.20;;;;;;;;;;4992236;28;20046;-75
2022/01/14 04:18:12;;;;;;;5.93;3.80;;;;;;;;;;4992624;28;20392;-75
2022/01/14 04:20:38;;;;;;;6.80;4.43;;;;;;;;;;4992491;28;20034;-74
2022/01/14 04:23:04;;;;;;;7.43;4.00;;;;;;;;;;4992581;28;20025;-75
2022/01/14 04:25:30;;;;;;;5.90;3.80;;;;;;;;;;4992199;28;20476;-75
2022/01/14 04:27:56;;;;;;;6.57;3.75;;;;;;;;;;4992582;28;20030;-75
2022/01/14 04:30:22;;;;;;;7.82;3.90;;;;;;;;;;4992146;28;20081;-75
2022/01/14 04:32:47;;;;;;;5.47;3.60;;;;;;;;;;4992493;28;20110;-75
2022/01/14 04:35:13;;;;;;;6.40;4.30;;;;;;;;;;4992046;28;20113;-75
2022/01/14 04:37:38;;;;;;;5.95;4.10;;;;;;;;;;4992295;28;20045;-75
2022/01/14 04:40:05;;;;;;;5.93;3.85;;;;;;;;;;4992133;28;20069;-75
2022/01/14 04:42:30;;;;;;;4.93;3.20;;;;;;;;;;4992413;28;20077;-75
2022/01/14 04:44:56;;;;;;;5.22;3.65;;;;;;;;;;4991834;28;20038;-75
2022/01/14 04:47:44;;;;;;;4.90;3.72;;;;;;;;;;4991193;28;20073;-75
2022/01/14 04:50:15;;;;;;;7.20;4.30;;;;;;;;;;4992178;28;20049;-75
2022/01/14 04:52:42;;;;;;;6.13;3.80;;;;;;;;;;4991990;28;20030;-75
2022/01/14 04:55:10;;;;;;;5.55;3.78;;;;;;;;;;4991470;28;20018;-75
2022/01/14 04:57:35;;;;;;;8.45;4.50;;;;;;;;;;4991781;28;20092;-75
2022/01/14 05:00:03;;;;;;;9.57;4.65;;;;;;;;;;4991600;28;20417;-75
2022/01/14 05:02:29;;;;;;;9.65;5.75;;;;;;;;;;4991735;28;20440;-75
2022/01/14 05:04:57;;;;;;;7.50;4.03;;;;;;;;;;4991447;28;20109;-75
2022/01/14 05:07:25;;;;;;;9.65;5.65;;;;;;;;;;4991698;28;20023;-75
2022/01/14 05:10:07;;;;;;;7.72;5.03;;;;;;;;;;4991568;28;20491;-75
2022/01/14 05:12:34;;;;;;;9.13;5.87;;;;;;;;;;4991747;28;20214;-75
2022/01/14 05:15:01;;;;;;;13.13;8.82;;;;;;;;;;4991048;28;20571;-75
2022/01/14 05:17:26;;;;;;;8.98;5.97;;;;;;;;;;4991590;28;20026;-75
2022/01/14 05:19:52;;;;;;;8.23;4.95;;;;;;;;;;4991820;28;20129;-75
2022/01/14 05:22:17;;;;;;;8.35;4.47;;;;;;;;;;4991151;28;20081;-75
2022/01/14 05:24:43;;;;;;;8.77;5.15;;;;;;;;;;4991216;28;20037;-75
2022/01/14 05:27:09;;;;;;;8.90;5.20;;;;;;;;;;4991111;28;20113;-75
2022/01/14 05:29:34;;;;;;;9.25;5.70;;;;;;;;;;4991840;28;20110;-75
2022/01/14 05:32:04;;;;;;;9.32;5.68;;;;;;;;;;4991131;28;20031;-75
2022/01/14 05:34:31;;;;;;;10.52;5.45;;;;;;;;;;4991041;28;20026;-75
2022/01/14 05:36:57;;;;;;;10.60;5.35;;;;;;;;;;4990868;28;20026;-75
2022/01/14 05:39:23;;;;;;;9.55;5.28;;;;;;;;;;4991165;28;20029;-75
2022/01/14 05:41:50;;;;;;;14.50;6.65;;;;;;;;;;4991016;28;20377;-75
2022/01/14 05:44:15;;;;;;;10.95;6.10;;;;;;;;;;4991576;28;20035;-75
2022/01/14 05:46:40;;;;;;;9.20;5.05;;;;;;;;;;4989296;28;20030;-75
2022/01/14 05:49:05;;;;;;;9.23;5.30;;;;;;;;;;4991105;28;20048;-75
2022/01/14 05:51:31;;;;;;;12.05;5.90;;;;;;;;;;4990519;28;20485;-75
2022/01/14 05:53:56;;;;;;;8.75;5.60;;;;;;;;;;4991041;28;20036;-75
2022/01/14 05:56:22;;;;;;;9.52;4.65;;;;;;;;;;4990391;28;20104;-75
2022/01/14 05:58:47;;;;;;;7.30;4.68;;;;;;;;;;4990315;28;20037;-75
2022/01/14 06:01:12;;;;;;;11.75;4.97;;;;;;;;;;4990652;28;20050;-75
2022/01/14 06:03:38;;;;;;;9.43;4.78;;;;;;;;;;4990993;28;20030;-74
2022/01/14 06:06:03;;;;;;;9.75;5.82;;;;;;;;;;4990037;28;20033;-75
2022/01/14 06:08:28;;;;;;;9.57;5.07;;;;;;;;;;4990532;28;20023;-75
2022/01/14 06:10:54;;;;;;;9.55;5.10;;;;;;;;;;4990264;28;20082;-75
2022/01/14 06:13:19;;;;;;;8.82;4.82;;;;;;;;;;4990462;28;20106;-76
2022/01/14 06:15:44;;;;;;;10.13;5.63;;;;;;;;;;4990051;28;20485;-75
2022/01/14 06:18:10;;;;;;;10.35;5.20;;;;;;;;;;4990425;28;20033;-76
2022/01/14 06:20:35;;;;;;;8.50;4.43;;;;;;;;;;4990371;28;20038;-76
2022/01/14 06:23:00;;;;;;;11.73;5.25;;;;;;;;;;4990198;28;20030;-76
2022/01/14 06:25:25;;;;;;;11.35;4.60;;;;;;;;;;4990084;28;20400;-76
2022/01/14 06:27:51;;;;;;;8.73;5.28;;;;;;;;;;4990168;28;20022;-75
2022/01/14 06:30:16;;;;;;;11.93;5.65;;;;;;;;;;4990440;28;20037;-75
2022/01/14 06:32:42;;;;;;;8.80;5.22;;;;;;;;;;4990533;28;20101;-76
2022/01/14 06:35:13;;;;;;;9.63;5.15;;;;;;;;;;4990023;28;20507;-76
2022/01/14 06:37:39;;;;;;;6.57;4.07;;;;;;;;;;4990285;28;20067;-76
2022/01/14 06:40:06;;;;;;;6.85;4.35;;;;;;;;;;4990394;28;20467;-76
2022/01/14 06:42:32;;;;;;;8.32;4.47;;;;;;;;;;4990093;28;20704;-75
2022/01/14 06:44:57;;;;;;;8.45;4.22;;;;;;;;;;4989551;28;20038;-75
2022/01/14 06:47:23;;;;;;;6.75;4.28;;;;;;;;;;4989831;28;20551;-76
2022/01/14 06:49:49;;;;;;;8.88;4.90;;;;;;;;;;4988811;28;20046;-75
2022/01/14 06:52:14;;;;;;;10.05;4.68;;;;;;;;;;4989825;28;20072;-75
2022/01/14 06:54:40;;;;;;;11.70;4.85;;;;;;;;;;4989895;28;20030;-76
2022/01/14 06:57:06;;;;;;;7.72;5.30;;;;;;;;;;4996270;28;20034;-76
2022/01/14 06:59:31;;;;;;;8.98;5.18;;;;;;;;;;4995089;28;20026;-75
2022/01/14 07:01:56;;;;;;;10.27;4.78;;;;;;;;;;4992729;28;20061;-76
2022/01/14 07:04:22;;;;;;;8.50;4.97;;;;;;;;;;4989685;28;20433;-76
2022/01/14 07:06:47;;;;;;;8.10;4.78;;;;;;;;;;4999121;28;20033;-77
2022/01/14 07:09:12;;;;;;;8.48;4.88;;;;;;;;;;5006167;28;20041;-77
2022/01/14 07:11:38;;;;;;;9.88;4.75;;;;;;;;;;5012685;28;20045;-77
2022/01/14 07:14:04;;;;;;;7.90;4.40;;;;;;;;;;5010388;28;20026;-75
2022/01/14 07:16:30;;;;;;;9.32;5.28;;;;;;;;;;5002420;28;20021;-77
2022/01/14 07:18:56;;;;;;;8.98;4.57;;;;;;;;;;5008051;28;20434;-77
2022/01/14 07:21:21;;;;;;;13.18;5.22;;;;;;;;;;5008969;28;20038;-76
2022/01/14 07:23:46;;;;;;;7.88;5.00;;;;;;;;;;5009364;28;20030;-77
2022/01/14 07:26:12;;;;;;;9.35;4.70;;;;;;;;;;5008476;28;20116;-76
2022/01/14 07:28:37;;;;;;;8.35;4.47;;;;;;;;;;5009437;28;20033;-76
2022/01/14 07:31:03;;;;;;;8.55;4.63;;;;;;;;;;5009187;28;20056;-77
2022/01/14 07:33:28;;;;;;;7.47;4.63;;;;;;;;;;5009277;28;20037;-76
2022/01/14 07:35:53;;;;;;;11.20;4.45;;;;;;;;;;5010839;28;20025;-77
2022/01/14 07:38:19;;;;;;;7.50;4.68;;;;;;;;;;5008295;28;20494;-76
2022/01/14 07:40:44;;;;;;;9.88;4.65;;;;;;;;;;5009139;28;20092;-76
2022/01/14 07:43:09;;;;;;;6.65;4.07;;;;;;;;;;5008618;28;20026;-77
2022/01/14 07:45:35;;;;;;;7.75;4.47;;;;;;;;;;5008664;28;20018;-76
2022/01/14 07:48:00;;;;;;;6.60;4.40;;;;;;;;;;5008799;28;20018;-76
2022/01/14 07:50:25;;;;;;;9.35;4.85;;;;;;;;;;5008430;28;20025;-76
2022/01/14 07:52:51;;;;;;;7.68;4.80;;;;;;;;;;5008922;28;20425;-76
2022/01/14 07:55:16;;;;;;;8.30;4.40;;;;;;;;;;5008175;28;20144;-76
2022/01/14 07:57:46;;;;;;;9.77;4.95;;;;;;;;;;5013674;28;20022;-78
2022/01/14 08:00:12;;;;;;;9.40;5.40;;;;;;;;;;5015016;28;20053;-79
2022/01/14 08:02:57;;;;;;;10.15;5.45;;;;;;;;;;5015325;28;20041;-80
2022/01/14 08:05:23;;;;;;;10.35;5.00;;;;;;;;;;5013890;28;20538;-79
2022/01/14 08:07:51;;;;;;;8.68;4.80;;;;;;;;;;5014021;28;20033;-78
2022/01/14 08:10:17;;;;;;;12.23;5.78;;;;;;;;;;5013948;28;20037;-78
2022/01/14 08:12:43;;;;;;;11.38;5.53;;;;;;;;;;5014271;28;20029;-78
2022/01/14 08:15:12;;;;;;;10.65;5.32;;;;;;;;;;5013247;28;20034;-78
2022/01/14 08:17:38;;;;;;;11.00;5.90;;;;;;;;;;5011441;28;20030;-77
2022/01/14 08:20:07;;;;;;;8.90;5.95;;;;;;;;;;5012426;28;20050;-78
2022/01/14 08:22:34;;;;;;;10.77;6.55;;;;;;;;;;5013451;28;20024;-78
2022/01/14 08:25:01;;;;;;;12.15;6.75;;;;;;;;;;5013056;28;20037;-78
2022/01/14 08:27:28;;;;;;;9.15;5.68;;;;;;;;;;5011489;28;20079;-78
2022/01/14 08:29:54;;;;;;;10.30;5.70;;;;;;;;;;5010647;28;20026;-79
2022/01/14 08:32:22;;;;;;;12.95;7.60;;;;;;;;;;5017865;28;20026;-80
2022/01/14 08:34:48;;;;;;;10.23;5.72;;;;;;;;;;5019966;28;20033;-80
2022/01/14 08:37:14;;;;;;;11.30;6.43;;;;;;;;;;5013631;28;20032;-81
2022/01/14 08:39:40;;;;;;;13.85;7.82;;;;;;;;;;5011104;28;20037;-78
2022/01/14 08:42:10;;;;;;;19.45;11.73;;;;;;;;;;5006931;28;20067;-77
2022/01/14 08:44:39;;;;;;;12.10;6.07;;;;;;;;;;5010048;28;20061;-76
2022/01/14 08:47:09;;;;;;;10.55;6.55;;;;;;;;;;5008517;28;20407;-77
2022/01/14 08:49:35;;;;;;;14.75;5.40;;;;;;;;;;5007942;28;20057;-77
2022/01/14 08:52:00;;;;;;;9.38;5.07;;;;;;;;;;5024005;22;20538;-70
2022/01/14 08:54:25;;;;;;;8.80;4.82;;;;;;;;;;5007342;28;20348;-70
2022/01/14 08:56:51;;;;;;;9.00;5.20;;;;;;;;;;5002938;28;20440;-71
2022/01/14 08:59:17;;;;;;;8.70;4.63;;;;;;;;;;5006348;28;20037;-72
2022/01/14 09:01:43;;;;;;;8.10;4.80;;;;;;;;;;5006612;28;20026;-72
2022/01/14 09:04:08;;;;;;;8.73;4.70;;;;;;;;;;5005774;28;20071;-74
2022/01/14 09:06:34;;;;;;;8.27;4.88;;;;;;;;;;5008680;28;20427;-70
2022/01/14 09:08:59;;;;;;;8.95;5.13;;;;;;;;;;5007413;28;20030;-73
2022/01/14 09:11:24;;;;;;;8.38;4.63;;;;;;;;;;5007494;28;20032;-73
2022/01/14 09:13:50;;;;;;;7.78;4.70;;;;;;;;;;5006874;28;20080;-74
2022/01/14 09:16:18;;;;;;;9.02;5.30;;;;;;;;;;5012200;28;20021;-73
2022/01/14 09:18:44;;;;;;;11.55;5.95;;;;;;;;;;5019508;28;20060;-74
2022/01/14 09:21:09;;;;;;;11.20;5.63;;;;;;;;;;5006667;28;20080;-72
2022/01/14 09:23:37;;;;;;;14.43;8.27;;;;;;;;;;5007684;28;20028;-73
2022/01/14 09:26:02;;;;;;;11.13;6.22;;;;;;;;;;5006602;28;20230;-75
2022/01/14 09:28:28;;;;;;;10.90;6.15;;;;;;;;;;5006564;28;20695;-73
2022/01/14 09:30:54;;;;;;;9.30;5.72;;;;;;;;;;5005911;28;20029;-73
2022/01/14 09:33:20;;;;;;;10.88;6.35;;;;;;;;;;5005666;28;20375;-74
2022/01/14 09:35:46;;;;;;;11.57;6.95;;;;;;;;;;5006357;28;20471;-74
2022/01/14 09:38:12;;;;;;;12.48;6.45;;;;;;;;;;5009799;28;20530;-71
2022/01/14 09:40:42;;;;;;;9.80;5.78;;;;;;;;;;5023198;28;20029;-75
2022/01/14 09:43:08;;;;;;;11.38;6.38;;;;;;;;;;5026615;28;20071;-74
2022/01/14 09:45:34;;;;;;;10.07;6.18;;;;;;;;;;5026555;28;20029;-75
2022/01/14 09:48:00;;;;;;;13.88;7.55;;;;;;;;;;5008388;28;20061;-73
2022/01/14 09:50:25;;;;;;;10.02;5.35;;;;;;;;;;5006009;28;20057;-74
2022/01/14 09:52:51;;;;;;;10.20;5.20;;;;;;;;;;5006884;28;20032;-75
2022/01/14 09:55:21;;;;;;;9.57;5.05;;;;;;;;;;5005767;28;20514;-75
2022/01/14 09:57:48;;;;;;;12.95;6.70;;;;;;;;;;5006442;28;20037;-74
2022/01/14 10:00:14;;;;;;;12.07;6.72;;;;;;;;;;5006787;28;20021;-74
2022/01/14 10:02:43;;;;;;;10.90;6.32;;;;;;;;;;5006207;28;20458;-75
2022/01/14 10:05:30;;;;;;;11.25;7.28;;;;;;;;;;5004836;28;20034;-73
2022/01/14 10:08:21;;;;;;;11.50;7.25;;;;;;;;;;5002507;28;20034;-74
2022/01/14 10:10:55;;;;;;;10.18;6.47;;;;;;;;;;4999724;28;20137;-73
2022/01/14 10:13:34;;;;;;;11.77;6.63;;;;;;;;;;4991155;28;20395;-73
2022/01/14 10:16:07;;;;;;;11.32;6.75;;;;;;;;;;4986468;28;20026;-73
2022/01/14 10:18:34;;;;;;;10.40;6.35;;;;;;;;;;4987622;28;20122;-75
2022/01/14 10:21:02;;;;;;;10.45;6.45;;;;;;;;;;4990235;28;20041;-75
2022/01/14 10:23:44;;;;;;;10.55;6.30;;;;;;;;;;5005308;28;20576;-74
2022/01/14 10:26:14;;;;;;;10.85;5.85;;;;;;;;;;5005900;28;20407;-75
2022/01/14 10:28:43;;;;;;;9.32;5.85;;;;;;;;;;5005939;28;20017;-72
2022/01/14 10:31:10;;;;;;;9.68;6.18;;;;;;;;;;5005982;28;20025;-75
2022/01/14 10:33:35;;;;;;;7.65;4.72;;;;;;;;;;5005956;28;20478;-74
2022/01/14 10:36:00;;;;;;;10.85;5.53;;;;;;;;;;5005306;28;20036;-72
2022/01/14 10:38:36;;;;;;;8.73;4.97;;;;;;;;;;5006609;28;20030;-73
2022/01/14 10:41:05;;;;;;;9.68;5.55;;;;;;;;;;5005884;28;20029;-74
2022/01/14 10:43:33;;;;;;;11.02;6.85;;;;;;;;;;5006193;28;20030;-73
2022/01/14 10:46:03;;;;;;;10.38;6.47;;;;;;;;;;5025401;28;20029;-71
2022/01/14 10:48:32;;;;;;;10.45;6.55;;;;;;;;;;5026786;28;20180;-74
2022/01/14 10:51:04;;;;;;;13.48;7.53;;;;;;;;;;5023960;28;20277;-73
2022/01/14 10:53:44;;;;;;;15.27;8.63;;;;;;;;;;5024732;28;20116;-75
2022/01/14 10:56:14;;;;;;;12.25;7.40;;;;;;;;;;5011368;28;20263;-74
2022/01/14 10:58:45;;;;;;;12.93;7.70;;;;;;;;;;5005808;28;20022;-75
2022/01/14 11:01:15;;;;;;;11.48;7.65;;;;;;;;;;5001655;28;20073;-73
2022/01/14 11:03:43;;;;;;;12.25;7.97;;;;;;;;;;5006455;28;20053;-74
2022/01/14 11:06:29;;;;;;;12.73;7.65;;;;;;;;;;5004703;28;20230;-75
2022/01/14 11:08:58;;;;;;;13.70;7.35;;;;;;;;;;5006278;28;20018;-72
2022/01/14 11:11:25;;;;;;;12.20;7.72;;;;;;;;;;5005452;28;20105;-74
2022/01/14 11:13:50;;;;;;;12.15;8.00;;;;;;;;;;5004111;28;20022;-75
2022/01/14 11:16:16;;;;;;;13.52;7.60;;;;;;;;;;5002621;28;20092;-75
2022/01/14 11:18:41;;;;;;;12.10;7.32;;;;;;;;;;5014973;28;20037;-73
2022/01/14 11:23:51;;;;;;;12.63;8.07;;;;;;;;;;5005303;28;20041;-75
2022/01/14 11:26:20;;;;;;;17.23;9.60;;;;;;;;;;5004087;28;20022;-74
2022/01/14 11:28:46;;;;;;;15.23;8.68;;;;;;;;;;5005051;28;20289;-76
2022/01/14 11:31:33;;;;;;;13.00;8.10;;;;;;;;;;5004152;28;20471;-75
2022/01/14 11:34:01;;;;;;;14.63;7.85;;;;;;;;;;5005865;28;20124;-75
2022/01/14 11:36:49;;;;;;;10.95;7.40;;;;;;;;;;5004974;28;20061;-74
2022/01/14 11:39:22;;;;;;;15.07;10.10;;;;;;;;;;5005404;28;20346;-74
2022/01/14 11:41:56;;;;;;;12.48;8.05;;;;;;;;;;5005201;28;20395;-74
2022/01/14 11:44:40;;;;;;;15.90;9.80;;;;;;;;;;5004438;28;20476;-74
2022/01/14 11:47:06;;;;;;;14.27;8.07;;;;;;;;;;5005398;28;20387;-74
2022/01/14 11:49:34;;;;;;;14.02;9.18;;;;;;;;;;5005340;28;20156;-73
2022/01/14 11:52:02;;;;;;;14.00;8.20;;;;;;;;;;5004734;28;20034;-71
2022/01/14 11:54:44;;;;;;;15.48;9.60;;;;;;;;;;5005641;28;20017;-71
2022/01/14 11:57:12;;;;;;;16.60;10.30;;;;;;;;;;5008015;28;20025;-74
2022/01/14 11:59:39;;;;;;;16.30;9.18;;;;;;;;;;5007722;28;20026;-74
2022/01/14 12:02:31;;;;;;;14.73;9.13;;;;;;;;;;5007756;28;20030;-74
2022/01/14 12:05:09;;;;;;;19.38;9.45;;;;;;;;;;5009304;28;20076;-73
2022/01/14 12:08:10;;;;;;;13.63;9.13;;;;;;;;;;5009224;28;20030;-73
2022/01/14 12:10:43;;;;;;;17.75;9.65;;;;;;;;;;5006879;28;20030;-73
2022/01/14 12:13:26;;;;;;;15.70;9.60;;;;;;;;;;5007019;28;20030;-74
2022/01/14 12:16:02;;;;;;;16.08;9.55;;;;;;;;;;5006985;28;20395;-73
2022/01/14 12:18:45;;;;;;;15.25;9.32;;;;;;;;;;5008202;28;20101;-74
2022/01/14 12:21:10;;;;;;;15.20;10.27;;;;;;;;;;5007292;28;20270;-72
2022/01/14 12:23:36;;;;;;;16.48;10.25;;;;;;;;;;5005729;28;20673;-74
2022/01/14 12:26:15;;;;;;;14.27;9.20;;;;;;;;;;5008705;28;20026;-74
2022/01/14 12:28:42;;;;;;;16.10;9.70;;;;;;;;;;5008672;28;20040;-71
2022/01/14 12:31:08;;;;;;;14.48;8.35;;;;;;;;;;5007590;28;20026;-75
2022/01/14 12:33:45;;;;;;;13.27;9.02;;;;;;;;;;5006902;28;20029;-74
2022/01/14 12:36:19;;;;;;;20.08;12.23;;;;;;;;;;5007837;28;20470;-74
2022/01/14 12:38:45;;;;;;;19.95;11.48;;;;;;;;;;5008385;28;20040;-73
2022/01/14 12:41:18;;;;;;;20.42;10.82;;;;;;;;;;5008064;28;20514;-74
2022/01/14 12:44:02;;;;;;;;;;;;;;;;;;5008917;28;20021;-74
2022/01/14 12:46:53;;;;;;;15.70;8.40;;;;;;;;;;5007877;28;19964;-75
2022/01/14 12:49:24;;;;;;;11.77;7.35;;;;;;;;;;5006478;28;20026;-74
2022/01/14 12:52:03;;;;;;;10.43;7.30;;;;;;;;;;5007462;28;20033;-73
2022/01/14 12:54:31;;;;;;;10.45;5.68;;;;;;;;;;5007444;28;20465;-75
2022/01/14 12:56:57;;;;;;;12.13;7.25;;;;;;;;;;5008186;28;20032;-74
2022/01/14 12:59:24;;;;;;;12.57;7.32;;;;;;;;;;5007273;28;20651;-75
2022/01/14 13:01:52;;;;;;;16.23;9.93;;;;;;;;;;5007334;28;20022;-74
2022/01/14 13:04:20;;;;;;;12.75;7.63;;;;;;;;;;5008253;28;20588;-74
2022/01/14 13:06:57;;;;;;;11.88;7.07;;;;;;;;;;5006741;28;20014;-75
2022/01/14 13:09:29;;;;;;;18.38;10.85;;;;;;;;;;5005772;28;20021;-75
2022/01/14 13:11:59;;;;;;;20.70;11.93;;;;;;;;;;5006233;28;20538;-74
2022/01/14 13:14:27;;;;;;;20.55;11.95;;;;;;;;;;4996519;28;20538;-75
2022/01/14 13:16:53;;;;;;;22.50;11.82;;;;;;;;;;4988752;28;20030;-76
2022/01/14 13:19:30;;;;;;;20.63;11.98;;;;;;;;;;5006490;28;20108;-75
2022/01/14 13:21:57;;;;;;;20.25;12.32;;;;;;;;;;5001166;28;20042;-74
2022/01/14 13:24:29;;;;;;;17.92;10.45;;;;;;;;;;4987316;28;20026;-75
2022/01/14 13:27:05;;;;;;;17.65;9.32;;;;;;;;;;4987569;28;20022;-73
2022/01/14 13:29:39;;;;;;;14.65;8.98;;;;;;;;;;5008358;28;20722;-72
2022/01/14 13:32:05;;;;;;;16.33;8.93;;;;;;;;;;5003090;28;20038;-74
2022/01/14 13:34:32;;;;;;;16.05;10.30;;;;;;;;;;5006749;28;20718;-75
2022/01/14 13:36:57;;;;;;;15.48;9.60;;;;;;;;;;5006098;28;20030;-75
2022/01/14 13:39:23;;;;;;;27.52;9.90;;;;;;;;;;5005227;28;20076;-75
2022/01/14 13:41:48;;;;;;;17.67;9.65;;;;;;;;;;5005072;28;20293;-75
2022/01/14 13:44:18;;;;;;;19.55;10.60;;;;;;;;;;5006919;28;20105;-73
2022/01/14 13:46:50;;;;;;;16.70;10.27;;;;;;;;;;5006654;28;20205;-74
2022/01/14 13:49:26;;;;;;;17.63;9.70;;;;;;;;;;5006630;28;20395;-74
2022/01/14 13:52:06;;;;;;;16.48;10.20;;;;;;;;;;5006487;28;20030;-74
2022/01/14 13:54:31;;;;;;;16.15;9.63;;;;;;;;;;5006996;28;20037;-74
2022/01/14 13:57:10;;;;;;;20.10;9.20;;;;;;;;;;5001195;28;20371;-72
2022/01/14 13:59:36;;;;;;;20.70;12.38;;;;;;;;;;4995482;28;20397;-74
2022/01/14 14:02:04;;;;;;;20.02;11.00;;;;;;;;;;4994072;28;20022;-73
2022/01/14 14:04:32;;;;;;;19.92;11.63;;;;;;;;;;4989950;28;20356;-74
2022/01/14 14:07:05;;;;;;;17.42;9.88;;;;;;;;;;4997395;28;20555;-74
2022/01/14 14:09:34;;;;;;;17.50;10.10;;;;;;;;;;5005103;28;20025;-74
2022/01/14 14:17:39;;;;;;;16.83;10.13;;;;;;;;;;5006607;28;20033;-74
2022/01/14 14:20:06;;;;;;;17.30;9.85;;;;;;;;;;5004248;28;20030;-73
2022/01/14 14:22:41;;;;;;;15.90;9.68;;;;;;;;;;5008363;28;20068;-73
2022/01/14 14:25:27;;;;;;;18.38;11.05;;;;;;;;;;5009384;28;20021;-73
2022/01/14 14:28:01;;;;;;;16.70;10.43;;;;;;;;;;5005530;28;20588;-73
2022/01/14 14:30:34;;;;;;;17.90;10.60;;;;;;;;;;4992511;28;20112;-73
2022/01/14 14:33:00;;;;;;;22.42;13.20;;;;;;;;;;5008008;28;20030;-74
2022/01/14 14:35:30;;;;;;;17.55;11.48;;;;;;;;;;5009361;28;20041;-75
2022/01/14 14:37:56;;;;;;;20.88;11.70;;;;;;;;;;5009338;28;20029;-74
2022/01/14 14:40:28;;;;;;;22.55;10.82;;;;;;;;;;5008327;28;20139;-74
2022/01/14 14:42:53;;;;;;;20.45;11.85;;;;;;;;;;5008905;28;20037;-74
2022/01/14 14:45:20;;;;;;;20.75;11.55;;;;;;;;;;5009690;28;20028;-73
2022/01/14 14:47:46;;;;;;;21.45;12.45;;;;;;;;;;5009598;28;20037;-73
2022/01/14 14:50:13;;;;;;;24.08;13.85;;;;;;;;;;5009838;28;20071;-74
2022/01/14 14:52:39;;;;;;;20.90;12.05;;;;;;;;;;5011515;28;20045;-73
2022/01/14 14:55:06;;;;;;;28.55;15.27;;;;;;;;;;5011627;28;20056;-73
2022/01/14 14:57:32;;;;;;;22.52;13.55;;;;;;;;;;5011747;28;20060;-73
2022/01/14 14:59:57;;;;;;;21.38;12.00;;;;;;;;;;5008280;28;20058;-73
2022/01/14 15:02:23;;;;;;;19.00;11.32;;;;;;;;;;4990954;28;20574;-73
2022/01/14 15:04:48;;;;;;;20.52;11.15;;;;;;;;;;4991824;28;20045;-73
2022/01/14 15:07:14;;;;;;;20.33;11.52;;;;;;;;;;4991326;28;20121;-73